Time;durP1;ratioP1;P1;durP2;ratioP2;P2;SDS_P1;SDS_P2;PMS_P1;PMS_P2;Temp;Humidity;BMP_temperature;BMP_pressure;BME280_temperature;BME280_humidity;BME280_pressure;Samples;Min_cycle;Max_cycle;Signal;HPM_P1;HPM_P2
2023/07/08 00:00:47;;;;;;;21.75;9.63;;;16.60;99.90;;;;;;5030135;28;20045;-63
2023/07/08 00:03:16;;;;;;;23.55;10.40;;;16.50;99.90;;;;;;5022392;28;20049;-64
2023/07/08 00:05:44;;;;;;;30.92;11.48;;;16.60;99.90;;;;;;5030436;28;20038;-64
2023/07/08 00:08:16;;;;;;;30.52;12.07;;;16.50;99.90;;;;;;5031053;28;20037;-64
2023/07/08 00:10:43;;;;;;;46.80;16.65;;;16.60;99.90;;;;;;5029892;28;20049;-62
2023/07/08 00:13:10;;;;;;;37.03;15.25;;;16.50;99.90;;;;;;5016187;28;20482;-63
2023/07/08 00:15:40;;;;;;;37.33;15.75;;;16.40;99.90;;;;;;5030271;28;20045;-64
2023/07/08 00:18:13;;;;;;;36.33;14.30;;;16.40;99.90;;;;;;5031051;28;20406;-64
2023/07/08 00:20:43;;;;;;;51.17;18.75;;;16.40;99.90;;;;;;5029820;28;20053;-63
2023/07/08 00:23:10;;;;;;;60.72;22.05;;;16.30;99.90;;;;;;5030282;28;20042;-64
2023/07/08 00:25:38;;;;;;;53.97;21.88;;;16.30;99.90;;;;;;5030220;28;20029;-64
2023/07/08 00:28:09;;;;;;;43.72;16.83;;;16.30;99.90;;;;;;5029053;28;20049;-64
2023/07/08 00:30:36;;;;;;;21.00;9.60;;;16.20;99.90;;;;;;5030940;28;20121;-63
2023/07/08 00:33:03;;;;;;;16.65;8.10;;;16.20;99.90;;;;;;5015319;28;20076;-64
2023/07/08 00:35:31;;;;;;;17.23;7.18;;;16.10;99.90;;;;;;5016593;28;20041;-64
2023/07/08 00:38:02;;;;;;;22.80;9.80;;;16.20;99.90;;;;;;5033003;28;20049;-64
2023/07/08 00:40:30;;;;;;;20.58;9.52;;;16.30;99.90;;;;;;5034727;28;20119;-64
2023/07/08 00:43:00;;;;;;;17.75;8.57;;;16.30;99.90;;;;;;5033014;28;20046;-64
2023/07/08 00:45:46;;;;;;;19.45;8.82;;;16.30;99.90;;;;;;5015818;28;20099;-63
2023/07/08 00:48:31;;;;;;;16.33;8.75;;;16.30;99.90;;;;;;5013468;28;20498;-64
2023/07/08 00:50:58;;;;;;;16.27;7.20;;;16.30;99.90;;;;;;5015315;28;20054;-64
2023/07/08 00:53:38;;;;;;;15.02;7.97;;;16.40;99.90;;;;;;5016589;28;20052;-63
2023/07/08 00:56:22;;;;;;;13.60;7.32;;;16.50;99.90;;;;;;5032959;28;20045;-64
2023/07/08 00:58:58;;;;;;;15.10;6.82;;;16.50;99.90;;;;;;5034534;28;20049;-63
2023/07/08 01:01:26;;;;;;;15.40;7.43;;;16.40;99.90;;;;;;5012134;28;20054;-64
2023/07/08 01:04:01;;;;;;;13.77;7.15;;;16.40;99.90;;;;;;5023112;28;20045;-64
2023/07/08 01:06:31;;;;;;;12.73;6.88;;;16.40;99.90;;;;;;5033802;28;20051;-64
2023/07/08 01:09:02;;;;;;;17.38;7.55;;;16.10;99.90;;;;;;5032942;28;20092;-64
2023/07/08 01:11:29;;;;;;;16.92;7.57;;;16.00;99.90;;;;;;5034224;28;20034;-64
2023/07/08 01:13:58;;;;;;;;;;;15.90;99.90;;;;;;5015004;28;20042;-64
2023/07/08 01:16:25;;;;;;;14.02;7.10;;;15.80;99.90;;;;;;5025258;28;19964;-64
2023/07/08 01:18:54;;;;;;;16.85;7.20;;;15.80;99.90;;;;;;5031809;28;20466;-64
2023/07/08 01:21:36;;;;;;;15.82;7.20;;;15.80;99.90;;;;;;5032248;28;20557;-64
2023/07/08 01:24:08;;;;;;;14.70;7.35;;;15.80;99.90;;;;;;5033895;28;20077;-63
2023/07/08 01:26:39;;;;;;;13.63;6.68;;;15.80;99.90;;;;;;5030136;28;20516;-64
2023/07/08 01:29:07;;;;;;;15.90;7.18;;;15.70;99.90;;;;;;5008769;28;20129;-64
2023/07/08 01:31:35;;;;;;;15.48;7.15;;;15.70;99.90;;;;;;5032612;28;20087;-64
2023/07/08 01:34:02;;;;;;;14.93;7.13;;;15.70;99.90;;;;;;5031608;28;20453;-63
2023/07/08 01:36:34;;;;;;;18.20;7.63;;;15.80;99.90;;;;;;5030309;28;20401;-64
2023/07/08 01:39:00;;;;;;;14.38;6.95;;;15.70;99.90;;;;;;5033533;28;20030;-64
2023/07/08 01:41:27;;;;;;;15.38;7.47;;;15.70;99.90;;;;;;5015850;28;20068;-64
2023/07/08 01:43:54;;;;;;;15.93;7.30;;;15.80;99.90;;;;;;5013676;28;20133;-64
2023/07/08 01:46:24;;;;;;;15.00;7.03;;;15.70;99.90;;;;;;5032966;28;20033;-64
2023/07/08 01:49:01;;;;;;;14.90;7.63;;;15.70;99.90;;;;;;5031163;28;20065;-64
2023/07/08 01:51:28;;;;;;;14.65;7.72;;;15.70;99.90;;;;;;5009342;28;20038;-64
2023/07/08 01:53:56;;;;;;;19.42;8.60;;;15.70;99.90;;;;;;5029987;28;20037;-64
2023/07/08 01:56:23;;;;;;;15.48;7.90;;;15.70;99.90;;;;;;5031823;28;20037;-63
2023/07/08 01:58:49;;;;;;;14.05;7.18;;;15.70;99.90;;;;;;5015536;28;20080;-64
2023/07/08 02:01:16;;;;;;;15.52;7.22;;;15.80;99.90;;;;;;5006080;28;20141;-63
2023/07/08 02:03:46;;;;;;;13.75;7.13;;;15.80;99.90;;;;;;5033189;28;20060;-64
2023/07/08 02:06:13;;;;;;;17.38;7.97;;;15.80;99.90;;;;;;5022748;28;20125;-64
2023/07/08 02:08:40;;;;;;;17.13;7.30;;;15.80;99.90;;;;;;5031628;28;20056;-62
2023/07/08 02:11:06;;;;;;;17.80;7.90;;;16.10;99.90;;;;;;5013467;28;20049;-64
2023/07/08 02:13:33;;;;;;;15.95;7.60;;;15.90;99.90;;;;;;5006826;28;20406;-63
2023/07/08 02:16:00;;;;;;;17.65;8.25;;;15.90;99.90;;;;;;5013815;28;20072;-63
2023/07/08 02:18:27;;;;;;;16.27;7.70;;;15.90;99.90;;;;;;5015222;28;20052;-63
2023/07/08 02:20:55;;;;;;;15.57;8.00;;;15.90;99.90;;;;;;5032487;28;20041;-63
2023/07/08 02:23:22;;;;;;;15.25;7.85;;;15.80;99.90;;;;;;5032633;28;20075;-63
2023/07/08 02:25:53;;;;;;;14.02;7.75;;;15.80;99.90;;;;;;5024272;28;20065;-64
2023/07/08 02:28:21;;;;;;;15.38;7.63;;;15.70;99.90;;;;;;5015637;28;20041;-63
2023/07/08 02:30:48;;;;;;;17.60;7.82;;;15.70;99.90;;;;;;5014216;28;20041;-63
2023/07/08 02:33:17;;;;;;;17.45;7.32;;;15.70;99.90;;;;;;5011105;28;20051;-64
2023/07/08 02:35:45;;;;;;;14.10;7.20;;;15.60;99.90;;;;;;5026960;28;20048;-63
2023/07/08 02:38:12;;;;;;;18.92;8.30;;;15.50;99.90;;;;;;5031429;28;20046;-63
2023/07/08 02:40:40;;;;;;;12.27;6.72;;;15.50;99.90;;;;;;5031486;28;20390;-64
2023/07/08 02:43:06;;;;;;;16.15;7.88;;;15.50;99.90;;;;;;5027213;28;20132;-62
2023/07/08 02:45:33;;;;;;;14.02;6.75;;;15.40;99.90;;;;;;5014018;28;20524;-64
2023/07/08 02:48:00;;;;;;;16.35;7.72;;;15.50;99.90;;;;;;5014397;28;20080;-64
2023/07/08 02:50:27;;;;;;;19.27;8.10;;;15.50;99.90;;;;;;5026831;28;20030;-63
2023/07/08 02:52:53;;;;;;;15.68;7.15;;;15.50;99.90;;;;;;5014367;28;20073;-64
2023/07/08 02:55:20;;;;;;;16.13;7.60;;;15.50;99.90;;;;;;5030651;28;20064;-64
2023/07/08 02:57:47;;;;;;;19.42;8.05;;;15.50;99.90;;;;;;5013865;28;20037;-64
2023/07/08 03:00:14;;;;;;;15.30;7.28;;;15.50;99.90;;;;;;5026131;28;20414;-64
2023/07/08 03:02:41;;;;;;;15.82;7.70;;;15.50;99.90;;;;;;5011017;28;20053;-64
2023/07/08 03:05:08;;;;;;;15.73;7.82;;;15.50;99.90;;;;;;5009965;28;20431;-64
2023/07/08 03:07:35;;;;;;;15.90;8.15;;;15.50;99.90;;;;;;5010815;28;20112;-64
2023/07/08 03:10:03;;;;;;;13.88;7.55;;;15.50;99.90;;;;;;5027831;28;20459;-64
2023/07/08 03:12:30;;;;;;;15.52;7.10;;;15.50;99.90;;;;;;5013655;28;20038;-64
2023/07/08 03:14:57;;;;;;;13.38;7.43;;;15.50;99.90;;;;;;5004784;28;20077;-64
2023/07/08 03:17:24;;;;;;;19.73;7.43;;;15.40;99.90;;;;;;5023253;28;20067;-64
2023/07/08 03:19:51;;;;;;;13.73;6.85;;;15.30;99.90;;;;;;5013891;28;20049;-64
2023/07/08 03:22:18;;;;;;;14.13;7.97;;;15.30;99.90;;;;;;5012792;28;20132;-64
2023/07/08 03:24:45;;;;;;;13.98;7.53;;;15.10;99.90;;;;;;4999592;28;20056;-64
2023/07/08 03:27:16;;;;;;;17.58;7.43;;;15.10;99.90;;;;;;5011862;28;20596;-64
2023/07/08 03:29:45;;;;;;;17.02;7.60;;;15.10;99.90;;;;;;5012827;28;20124;-64
2023/07/08 03:32:12;;;;;;;17.17;7.18;;;15.20;99.90;;;;;;5004048;28;20077;-64
2023/07/08 03:34:40;;;;;;;15.43;7.50;;;15.20;99.90;;;;;;5022999;28;20047;-64
2023/07/08 03:37:08;;;;;;;16.23;7.15;;;15.20;99.90;;;;;;5009980;28;20499;-64
2023/07/08 03:39:36;;;;;;;13.65;6.93;;;15.20;99.90;;;;;;5022377;28;20033;-64
2023/07/08 03:42:03;;;;;;;;;;;15.20;99.90;;;;;;5030463;28;20491;-64
2023/07/08 03:44:30;;;;;;;14.40;6.90;;;15.20;99.90;;;;;;5023737;28;19921;-64
2023/07/08 03:46:58;;;;;;;13.48;7.47;;;15.20;99.90;;;;;;4997597;28;20041;-64
2023/07/08 03:49:25;;;;;;;13.95;7.38;;;15.20;99.90;;;;;;5012749;28;20048;-64
2023/07/08 03:51:54;;;;;;;15.15;7.68;;;15.20;99.90;;;;;;5031385;28;20084;-64
2023/07/08 03:54:23;;;;;;;16.42;7.82;;;15.20;99.90;;;;;;5030158;28;20112;-64
2023/07/08 03:56:52;;;;;;;16.55;7.60;;;15.20;99.90;;;;;;5009465;28;20308;-63
2023/07/08 03:59:20;;;;;;;15.55;7.30;;;15.20;99.90;;;;;;5029140;28;20061;-64
2023/07/08 04:01:47;;;;;;;19.25;8.25;;;15.30;99.90;;;;;;5010732;28;20050;-63
2023/07/08 04:04:15;;;;;;;16.20;8.00;;;15.40;99.90;;;;;;5007367;28;20052;-63
2023/07/08 04:06:45;;;;;;;13.73;7.47;;;15.40;99.90;;;;;;5011721;28;20037;-64
2023/07/08 04:09:13;;;;;;;19.98;7.60;;;15.50;99.90;;;;;;5014992;28;20041;-64
2023/07/08 04:11:39;;;;;;;15.20;7.80;;;15.50;99.90;;;;;;5033599;28;20042;-63
2023/07/08 04:14:09;;;;;;;14.95;7.43;;;15.50;99.90;;;;;;5034912;28;20280;-64
2023/07/08 04:16:47;;;;;;;14.38;8.07;;;15.50;99.90;;;;;;5033786;28;20100;-64
2023/07/08 04:19:15;;;;;;;15.48;7.40;;;15.50;99.90;;;;;;5033163;28;20079;-63
2023/07/08 04:21:44;;;;;;;16.35;7.85;;;15.60;99.90;;;;;;5026890;28;20068;-63
2023/07/08 04:24:12;;;;;;;13.90;7.18;;;15.70;99.90;;;;;;5033988;28;20045;-63
2023/07/08 04:26:41;;;;;;;16.90;7.18;;;15.70;99.90;;;;;;5034505;28;20041;-64
2023/07/08 04:29:15;;;;;;;15.25;7.28;;;15.80;99.90;;;;;;5025492;28;20077;-64
2023/07/08 04:31:42;;;;;;;17.13;7.25;;;15.90;99.90;;;;;;5026489;28;20071;-63
2023/07/08 04:34:09;;;;;;;15.48;8.30;;;16.00;99.90;;;;;;5034446;28;20068;-64
2023/07/08 04:36:37;;;;;;;15.77;7.25;;;16.00;99.90;;;;;;5032725;28;20045;-63
2023/07/08 04:39:05;;;;;;;18.38;7.20;;;16.00;99.90;;;;;;5026440;28;20056;-64
2023/07/08 04:41:32;;;;;;;12.43;7.28;;;16.00;99.90;;;;;;5016275;28;20060;-64
2023/07/08 04:44:02;;;;;;;;;;;16.00;99.90;;;;;;5035116;28;20532;-64
2023/07/08 04:46:37;;;;;;;13.70;7.53;;;16.10;99.90;;;;;;5033112;28;19925;-63
2023/07/08 04:49:04;;;;;;;15.48;7.15;;;16.10;99.90;;;;;;5034470;28;20045;-63
2023/07/08 04:51:32;;;;;;;14.90;7.72;;;16.20;99.90;;;;;;5033134;28;20041;-62
2023/07/08 04:53:59;;;;;;;16.05;8.80;;;16.20;99.90;;;;;;5034145;28;20075;-63
2023/07/08 04:56:39;;;;;;;16.20;7.30;;;16.30;99.90;;;;;;5015621;28;20049;-63
2023/07/08 04:59:09;;;;;;;13.75;7.50;;;16.40;99.90;;;;;;5033222;28;20061;-64
2023/07/08 05:01:37;;;;;;;15.57;8.07;;;16.40;99.90;;;;;;5025307;28;20050;-63
2023/07/08 05:04:07;;;;;;;15.60;7.38;;;16.40;99.90;;;;;;5033114;28;20050;-64
2023/07/08 05:06:34;;;;;;;15.57;7.85;;;16.50;99.90;;;;;;5028696;28;20499;-64
2023/07/08 05:09:02;;;;;;;;;;;16.50;99.90;;;;;;5026589;28;20041;-63
2023/07/08 05:11:29;;;;;;;16.50;7.45;;;16.50;99.90;;;;;;5033119;28;19927;-64
2023/07/08 05:13:56;;;;;;;;;;;16.60;99.90;;;;;;5033854;28;20056;-64
2023/07/08 05:16:23;;;;;;;18.83;7.68;;;16.60;99.90;;;;;;5028025;28;20341;-63
2023/07/08 05:18:50;;;;;;;14.77;7.40;;;16.60;99.90;;;;;;5032931;28;20072;-63
2023/07/08 05:21:18;;;;;;;13.88;7.57;;;16.60;99.90;;;;;;5032588;28;20057;-64
2023/07/08 05:23:49;;;;;;;18.65;7.38;;;16.60;99.90;;;;;;5032801;28;20050;-64
2023/07/08 05:26:17;;;;;;;16.42;7.90;;;16.70;99.90;;;;;;5021851;28;20048;-64
2023/07/08 05:28:44;;;;;;;17.45;8.50;;;16.60;99.90;;;;;;5026103;28;20553;-64
2023/07/08 05:31:10;;;;;;;14.68;8.07;;;16.70;99.90;;;;;;5033798;28;20049;-64
2023/07/08 05:33:37;;;;;;;17.17;7.95;;;16.80;99.90;;;;;;5011787;28;20037;-64
2023/07/08 05:36:04;;;;;;;17.20;7.75;;;16.90;99.90;;;;;;5024875;28;20053;-64
2023/07/08 05:38:31;;;;;;;17.65;7.63;;;17.00;99.90;;;;;;5029793;28;20430;-64
2023/07/08 05:40:58;;;;;;;15.32;7.57;;;17.10;99.90;;;;;;5025303;28;20049;-63
2023/07/08 05:43:26;;;;;;;14.43;8.00;;;17.10;99.90;;;;;;5030280;28;20049;-63
2023/07/08 05:46:01;;;;;;;15.52;7.38;;;17.20;99.90;;;;;;5033032;28;20034;-64
2023/07/08 05:48:38;;;;;;;15.20;7.15;;;17.30;99.90;;;;;;5030839;28;20120;-64
2023/07/08 05:51:05;;;;;;;15.63;8.32;;;17.30;99.90;;;;;;5033415;28;20491;-64
2023/07/08 05:53:31;;;;;;;14.38;7.00;;;17.30;99.90;;;;;;5029692;28;20510;-64
2023/07/08 05:55:58;;;;;;;15.40;7.82;;;17.40;99.90;;;;;;5027333;28;20053;-64
2023/07/08 05:58:25;;;;;;;13.20;7.75;;;17.40;99.90;;;;;;5032813;28;20061;-64
2023/07/08 06:00:57;;;;;;;14.43;7.55;;;17.50;99.90;;;;;;5033408;28;20042;-64
2023/07/08 06:03:25;;;;;;;14.75;7.35;;;17.60;99.90;;;;;;5031869;28;20045;-64
2023/07/08 06:05:52;;;;;;;15.52;7.07;;;17.70;99.90;;;;;;5032747;28;20046;-64
2023/07/08 06:08:19;;;;;;;;;;;17.80;99.90;;;;;;5032254;28;20075;-63
2023/07/08 06:10:46;;;;;;;15.70;7.53;;;17.90;99.90;;;;;;5032757;28;19921;-64
2023/07/08 06:13:14;;;;;;;16.58;6.95;;;17.90;99.90;;;;;;5032077;28;20100;-64
2023/07/08 06:15:42;;;;;;;13.82;7.68;;;18.00;99.90;;;;;;5030062;28;20037;-64
2023/07/08 06:18:09;;;;;;;18.08;7.93;;;18.20;99.90;;;;;;5025025;28;20508;-64
2023/07/08 06:20:36;;;;;;;16.10;7.93;;;18.30;99.90;;;;;;5031634;28;20038;-64
2023/07/08 06:23:03;;;;;;;14.25;7.35;;;18.50;99.90;;;;;;5032829;28;20072;-64
2023/07/08 06:25:30;;;;;;;15.82;7.45;;;18.60;99.90;;;;;;5029899;28;20052;-64
2023/07/08 06:27:58;;;;;;;16.00;6.97;;;18.80;99.90;;;;;;5025326;28;20054;-64
2023/07/08 06:30:24;;;;;;;13.73;7.70;;;18.90;99.90;;;;;;5022712;28;20038;-64
2023/07/08 06:32:51;;;;;;;14.55;7.85;;;19.10;99.90;;;;;;5031011;28;20525;-63
2023/07/08 06:35:18;;;;;;;14.18;7.60;;;19.40;99.90;;;;;;5032077;28;20037;-64
2023/07/08 06:37:45;;;;;;;14.05;7.97;;;19.40;99.90;;;;;;5024353;28;20100;-64
2023/07/08 06:40:12;;;;;;;14.95;8.85;;;19.60;99.90;;;;;;5031100;28;20407;-64
2023/07/08 06:42:39;;;;;;;;;;;19.70;99.90;;;;;;5033186;28;20050;-64
2023/07/08 06:45:16;;;;;;;18.45;8.10;;;19.70;99.90;;;;;;5014069;28;19929;-64
2023/07/08 06:47:43;;;;;;;18.20;7.90;;;19.90;99.90;;;;;;5031195;28;20045;-64
2023/07/08 06:50:10;;;;;;;12.68;6.55;;;20.20;99.90;;;;;;5032244;28;20116;-64
2023/07/08 06:52:37;;;;;;;18.33;7.70;;;20.60;99.90;;;;;;5031831;28;20688;-64
2023/07/08 06:55:07;;;;;;;12.43;7.28;;;21.00;99.90;;;;;;5031276;28;20041;-64
2023/07/08 06:57:34;;;;;;;15.35;7.47;;;21.10;99.90;;;;;;5030817;28;20052;-64
2023/07/08 07:00:03;;;;;;;16.40;7.95;;;21.10;99.90;;;;;;5031407;28;20056;-64
2023/07/08 07:02:30;;;;;;;14.95;7.60;;;21.20;99.90;;;;;;5031749;28;20089;-64
2023/07/08 07:04:56;;;;;;;14.10;8.25;;;21.40;99.90;;;;;;5029716;28;20163;-64
2023/07/08 07:07:23;;;;;;;12.48;7.38;;;21.40;99.90;;;;;;4998094;28;20046;-64
2023/07/08 07:09:50;;;;;;;16.27;7.82;;;21.60;99.90;;;;;;5030605;28;20044;-64
2023/07/08 07:12:17;;;;;;;12.95;7.68;;;21.80;99.90;;;;;;5006797;28;20518;-64
2023/07/08 07:14:43;;;;;;;13.18;7.38;;;21.80;99.90;;;;;;5030068;28;20056;-64
2023/07/08 07:17:13;;;;;;;17.15;6.90;;;21.80;99.90;;;;;;5030404;28;20045;-64
2023/07/08 07:19:40;;;;;;;12.45;7.30;;;21.70;99.90;;;;;;5027417;28;20066;-64
2023/07/08 07:22:07;;;;;;;15.15;7.72;;;21.70;99.90;;;;;;5031995;28;20049;-64
2023/07/08 07:24:33;;;;;;;11.70;7.25;;;21.70;99.90;;;;;;5031201;28;20060;-64
2023/07/08 07:27:00;;;;;;;14.57;7.68;;;21.80;99.90;;;;;;5031210;28;20045;-64
2023/07/08 07:29:27;;;;;;;13.95;7.68;;;22.10;99.90;;;;;;5021773;28;20054;-64
2023/07/08 07:31:54;;;;;;;16.05;8.23;;;22.40;99.90;;;;;;5023974;28;20037;-64
2023/07/08 07:34:21;;;;;;;14.18;6.95;;;22.50;99.90;;;;;;5031194;28;20033;-64
2023/07/08 07:36:48;;;;;;;14.05;7.85;;;22.70;99.90;;;;;;5029903;28;20565;-64
2023/07/08 07:39:15;;;;;;;16.33;7.97;;;22.90;99.90;;;;;;5031598;28;20053;-64
2023/07/08 07:41:41;;;;;;;13.68;7.35;;;23.20;99.90;;;;;;5029329;28;20213;-64
2023/07/08 07:44:08;;;;;;;11.45;7.05;;;23.20;99.90;;;;;;5025471;28;20502;-64
2023/07/08 07:46:35;;;;;;;16.25;7.78;;;23.30;99.90;;;;;;5027740;28;20049;-64
2023/07/08 07:49:02;;;;;;;15.38;8.07;;;23.30;99.90;;;;;;5031281;28;20057;-64
2023/07/08 07:51:29;;;;;;;13.98;7.10;;;23.30;99.90;;;;;;5021959;28;20048;-64
2023/07/08 07:53:55;;;;;;;14.07;7.78;;;23.40;99.90;;;;;;5031305;28;20045;-64
2023/07/08 07:56:22;;;;;;;13.20;7.80;;;23.70;99.90;;;;;;5030669;28;20054;-64
2023/07/08 07:58:51;;;;;;;12.50;7.53;;;23.70;99.90;;;;;;5031253;28;20502;-64
2023/07/08 08:01:19;;;;;;;13.40;7.88;;;23.70;99.90;;;;;;5028959;28;20052;-64
2023/07/08 08:03:46;;;;;;;13.40;8.23;;;23.70;99.90;;;;;;5030877;28;20383;-64
2023/07/08 08:06:13;;;;;;;15.32;7.70;;;23.70;99.90;;;;;;5029524;28;20091;-64
2023/07/08 08:08:40;;;;;;;14.15;7.63;;;23.50;99.90;;;;;;5030578;28;20057;-64
2023/07/08 08:11:07;;;;;;;15.50;7.72;;;23.40;99.90;;;;;;5029917;28;20037;-64
2023/07/08 08:13:33;;;;;;;16.73;8.25;;;23.40;99.90;;;;;;5030825;28;20041;-64
2023/07/08 08:16:00;;;;;;;12.70;8.07;;;23.50;99.90;;;;;;5030470;28;20120;-64
2023/07/08 08:18:28;;;;;;;15.07;7.40;;;23.50;99.90;;;;;;5029799;28;20092;-64
2023/07/08 08:20:54;;;;;;;12.38;7.18;;;23.70;99.90;;;;;;5026608;28;20092;-64
2023/07/08 08:23:21;;;;;;;14.07;7.65;;;23.50;99.90;;;;;;5030296;28;20041;-64
2023/07/08 08:25:50;;;;;;;11.63;6.97;;;23.70;99.90;;;;;;5028500;28;20046;-64
2023/07/08 08:28:17;;;;;;;13.43;7.63;;;23.80;99.90;;;;;;5029861;28;20050;-64
2023/07/08 08:30:48;;;;;;;;;;;23.80;99.90;;;;;;5031235;28;20045;-64
2023/07/08 08:33:15;;;;;;;15.65;7.40;;;24.00;99.90;;;;;;5030529;28;19921;-64
2023/07/08 08:35:42;;;;;;;13.32;8.00;;;24.00;99.90;;;;;;5029299;28;20058;-64
2023/07/08 08:38:09;;;;;;;13.57;6.93;;;24.10;99.90;;;;;;5013180;28;20132;-64
2023/07/08 08:40:38;;;;;;;11.88;7.00;;;24.20;99.90;;;;;;5029775;28;20402;-64
2023/07/08 08:43:23;;;;;;;13.63;6.80;;;24.30;99.90;;;;;;5030946;28;20042;-64
2023/07/08 08:46:09;;;;;;;13.52;7.68;;;24.30;99.90;;;;;;5029229;28;20502;-64
2023/07/08 08:48:46;;;;;;;12.77;6.90;;;24.50;99.90;;;;;;5030763;28;20536;-64
2023/07/08 08:51:15;;;;;;;15.23;7.82;;;24.60;99.90;;;;;;5029465;28;20037;-64
2023/07/08 08:53:44;;;;;;;12.73;7.43;;;24.70;99.90;;;;;;5031768;28;20049;-64
2023/07/08 08:56:22;;;;;;;11.70;7.38;;;25.00;99.90;;;;;;5016207;28;20038;-64
2023/07/08 08:59:02;;;;;;;13.27;7.90;;;25.30;99.90;;;;;;5032756;28;20513;-64
2023/07/08 09:01:29;;;;;;;14.32;7.40;;;25.40;99.90;;;;;;5034344;28;20052;-64
2023/07/08 09:04:03;;;;;;;17.27;7.50;;;25.50;99.90;;;;;;5033829;28;20081;-64
2023/07/08 09:06:34;;;;;;;17.42;7.25;;;25.50;99.90;;;;;;5033438;28;20087;-64
2023/07/08 09:09:05;;;;;;;11.75;6.32;;;25.20;99.90;;;;;;5033131;28;20045;-64
2023/07/08 09:11:58;;;;;;;13.02;7.47;;;25.20;99.90;;;;;;5034065;28;20038;-64
2023/07/08 09:14:28;;;;;;;12.32;7.35;;;25.40;99.90;;;;;;5034551;28;20034;-64
2023/07/08 09:17:27;;;;;;;14.18;7.35;;;25.40;99.90;;;;;;5032414;28;20041;-64
2023/07/08 09:20:03;;;;;;;;;;;25.60;99.90;;;;;;5018117;28;20045;-64
2023/07/08 09:23:06;;;;;;;9.60;6.88;;;25.70;99.90;;;;;;5032321;28;20016;-64
2023/07/08 09:25:40;;;;;;;12.48;7.00;;;25.90;99.90;;;;;;5033192;28;20037;-64
2023/07/08 09:28:08;;;;;;;14.18;7.57;;;26.10;99.90;;;;;;5033339;28;20041;-64
2023/07/08 09:30:35;;;;;;;11.05;7.10;;;26.20;99.80;;;;;;5027606;28;20048;-64
2023/07/08 09:33:07;;;;;;;12.32;7.13;;;26.30;99.90;;;;;;5025739;28;20033;-64
2023/07/08 09:35:41;;;;;;;9.77;6.30;;;26.40;99.90;;;;;;5033134;28;20073;-64
2023/07/08 09:38:12;;;;;;;13.32;7.40;;;26.60;99.90;;;;;;5026670;28;20048;-64
2023/07/08 09:40:43;;;;;;;15.20;7.05;;;26.80;99.90;;;;;;5024442;28;20038;-64
2023/07/08 09:43:25;;;;;;;13.35;7.03;;;26.90;99.90;;;;;;5033581;28;20046;-64
2023/07/08 09:45:57;;;;;;;12.23;7.10;;;26.60;99.90;;;;;;5032752;28;20498;-64
2023/07/08 09:48:38;;;;;;;13.20;7.15;;;26.40;99.90;;;;;;5026058;28;20552;-64
2023/07/08 09:51:04;;;;;;;10.85;6.75;;;26.10;99.90;;;;;;5018181;28;20482;-63
2023/07/08 09:53:32;;;;;;;;;;;26.10;99.90;;;;;;5032545;28;20041;-63
2023/07/08 09:56:03;;;;;;;12.18;7.78;;;26.00;99.90;;;;;;5022999;28;19921;-64
2023/07/08 09:58:34;;;;;;;12.82;7.10;;;26.00;99.90;;;;;;5032660;28;20041;-64
2023/07/08 10:01:13;;;;;;;13.52;7.40;;;26.00;99.90;;;;;;5032926;28;20042;-64
2023/07/08 10:03:40;;;;;;;14.80;7.30;;;26.00;99.90;;;;;;5031507;28;20045;-64
2023/07/08 10:06:24;;;;;;;16.25;6.68;;;26.20;99.90;;;;;;5025931;28;20037;-63
2023/07/08 10:08:54;;;;;;;11.68;5.95;;;26.30;99.90;;;;;;5032835;28;20037;-64
2023/07/08 10:11:38;;;;;;;10.90;6.70;;;26.30;99.90;;;;;;5033014;28;20409;-64
2023/07/08 10:14:27;;;;;;;11.18;6.72;;;26.40;99.90;;;;;;5025491;28;20557;-64
2023/07/08 10:16:54;;;;;;;13.43;7.30;;;26.50;99.90;;;;;;5031900;28;20041;-64
2023/07/08 10:19:21;;;;;;;11.88;6.50;;;26.50;99.90;;;;;;5033233;28;20053;-64
2023/07/08 10:22:19;;;;;;;13.82;6.68;;;26.60;99.90;;;;;;5023517;28;20045;-64
2023/07/08 10:25:07;;;;;;;12.03;6.43;;;26.40;99.90;;;;;;5031346;28;20041;-63
2023/07/08 10:27:46;;;;;;;;;;;26.40;99.90;;;;;;5028248;28;20482;-63
2023/07/08 10:30:23;;;;;;;10.73;6.25;;;26.60;99.90;;;;;;5032499;28;20294;-64
2023/07/08 10:33:02;;;;;;;12.25;5.65;;;26.90;99.90;;;;;;5024269;28;20437;-64
2023/07/08 10:35:35;;;;;;;10.68;5.80;;;27.00;99.90;;;;;;5031633;28;20486;-64
2023/07/08 10:38:29;;;;;;;10.80;5.75;;;27.00;99.70;;;;;;5032710;28;20042;-64
2023/07/08 10:41:05;;;;;;;13.38;6.57;;;27.00;99.90;;;;;;5032346;28;20521;-64
2023/07/08 10:43:56;;;;;;;14.05;7.10;;;27.10;99.90;;;;;;5030990;28;20449;-64
2023/07/08 10:46:35;;;;;;;10.85;6.05;;;27.10;99.90;;;;;;5026014;28;20045;-64
2023/07/08 10:49:20;;;;;;;15.25;6.60;;;27.20;99.90;;;;;;5032165;28;20042;-64
2023/07/08 10:52:30;;;;;;;12.57;5.85;;;27.20;99.90;;;;;;5032315;28;20041;-63
2023/07/08 10:55:23;;;;;;;10.50;5.65;;;27.30;98.50;;;;;;5030307;28;20052;-64
2023/07/08 10:57:57;;;;;;;9.15;5.97;;;27.30;99.00;;;;;;5032171;28;20044;-64
2023/07/08 11:00:52;;;;;;;9.50;6.43;;;27.50;99.90;;;;;;5031812;28;20037;-64
2023/07/08 11:03:59;;;;;;;13.02;6.05;;;27.50;99.10;;;;;;5030912;28;20511;-63
2023/07/08 11:06:54;;;;;;;12.75;6.32;;;27.60;98.90;;;;;;5024524;28;20047;-63
2023/07/08 11:09:44;;;;;;;11.18;5.90;;;27.80;99.80;;;;;;5025580;28;20038;-64
2023/07/08 11:12:25;;;;;;;12.38;7.05;;;27.90;99.40;;;;;;5022788;28;20045;-64
2023/07/08 11:14:58;;;;;;;10.57;6.28;;;27.90;99.60;;;;;;5030080;28;20037;-64
2023/07/08 11:17:35;;;;;;;13.82;6.88;;;27.70;99.20;;;;;;5020236;28;20045;-63
2023/07/08 11:20:15;;;;;;;12.77;6.68;;;27.60;99.30;;;;;;5023957;28;20095;-64
2023/07/08 11:22:51;;;;;;;16.75;7.10;;;27.50;99.30;;;;;;5031575;28;20060;-64
2023/07/08 11:25:20;;;;;;;11.07;7.18;;;27.40;99.40;;;;;;5004937;28;20049;-64
2023/07/08 11:27:50;;;;;;;8.65;6.10;;;27.30;99.00;;;;;;5024900;28;20041;-64
2023/07/08 11:30:24;;;;;;;14.63;6.85;;;27.40;99.80;;;;;;5030990;28;20604;-64
2023/07/08 11:33:09;;;;;;;12.70;7.38;;;27.40;99.90;;;;;;5030440;28;20029;-64
2023/07/08 11:35:49;;;;;;;12.13;6.40;;;27.40;99.90;;;;;;5024789;28;20041;-64
2023/07/08 11:38:19;;;;;;;10.45;6.03;;;27.40;99.80;;;;;;5029954;28;20037;-64
2023/07/08 11:41:01;;;;;;;8.85;6.60;;;27.50;99.90;;;;;;5028019;28;20486;-64
2023/07/08 11:43:37;;;;;;;10.95;7.13;;;27.70;99.90;;;;;;5030569;28;20053;-64
2023/07/08 11:46:06;;;;;;;21.48;7.10;;;27.70;99.70;;;;;;5030137;28;20088;-64
2023/07/08 11:48:44;;;;;;;15.40;7.22;;;27.60;98.90;;;;;;5029627;28;20565;-64
2023/07/08 11:51:18;;;;;;;10.70;6.57;;;27.60;99.40;;;;;;5031518;28;20041;-64
2023/07/08 11:53:51;;;;;;;12.05;6.85;;;27.70;99.20;;;;;;5030967;28;20041;-64
2023/07/08 11:56:21;;;;;;;11.30;6.88;;;27.80;99.60;;;;;;5023463;28;20051;-64
2023/07/08 11:59:17;;;;;;;14.82;6.68;;;27.90;99.30;;;;;;5023907;28;20141;-64
2023/07/08 12:01:51;;;;;;;11.27;7.20;;;27.90;99.00;;;;;;5031328;28;20065;-64
2023/07/08 12:04:29;;;;;;;13.95;7.60;;;27.90;99.30;;;;;;5031025;28;20053;-63
2023/07/08 12:07:19;;;;;;;15.52;7.03;;;28.00;98.70;;;;;;5028845;28;20163;-63
2023/07/08 12:10:10;;;;;;;14.00;6.90;;;28.10;98.30;;;;;;5029572;28;20048;-63
2023/07/08 12:12:40;;;;;;;17.13;6.82;;;28.00;99.40;;;;;;5023533;28;20359;-64
2023/07/08 12:15:28;;;;;;;11.52;7.07;;;28.10;99.60;;;;;;5030714;28;20136;-64
2023/07/08 12:17:59;;;;;;;13.32;6.40;;;28.10;98.40;;;;;;5030551;28;20403;-64
2023/07/08 12:20:29;;;;;;;15.20;7.97;;;28.10;99.90;;;;;;5029895;28;20474;-64
2023/07/08 12:22:56;;;;;;;9.85;6.47;;;28.20;99.90;;;;;;5031011;28;20387;-64
2023/07/08 12:25:34;;;;;;;14.45;7.50;;;28.30;98.20;;;;;;5030473;28;20042;-64
2023/07/08 12:28:02;;;;;;;14.77;7.40;;;28.40;98.60;;;;;;5033356;28;20050;-63
2023/07/08 12:30:31;;;;;;;11.73;6.70;;;28.40;97.90;;;;;;5027619;28;20386;-64
2023/07/08 12:33:00;;;;;;;13.25;6.85;;;28.40;98.40;;;;;;5026831;28;20060;-64
2023/07/08 12:35:32;;;;;;;12.45;6.97;;;28.50;96.30;;;;;;5034252;28;20407;-64
2023/07/08 12:38:12;;;;;;;14.82;6.82;;;28.50;96.80;;;;;;5034785;28;20045;-64
2023/07/08 12:40:40;;;;;;;14.70;7.05;;;28.40;96.30;;;;;;5026741;28;20045;-64
2023/07/08 12:43:10;;;;;;;11.20;7.47;;;28.30;96.30;;;;;;5034667;28;20046;-64
2023/07/08 12:45:37;;;;;;;19.17;7.45;;;28.40;95.90;;;;;;5026928;28;20052;-63
2023/07/08 12:48:04;;;;;;;16.45;7.00;;;28.40;97.20;;;;;;5032289;28;20379;-64
2023/07/08 12:50:31;;;;;;;18.35;7.00;;;28.60;97.70;;;;;;5033782;28;20065;-64
2023/07/08 12:52:58;;;;;;;13.95;7.25;;;28.70;96.80;;;;;;5031635;28;20041;-63
2023/07/08 12:55:25;;;;;;;11.65;7.78;;;28.80;96.60;;;;;;5029236;28;20052;-64
2023/07/08 12:57:52;;;;;;;14.52;7.22;;;28.90;95.90;;;;;;5034225;28;20057;-64
2023/07/08 13:00:19;;;;;;;14.07;7.43;;;28.80;95.00;;;;;;5034265;28;20046;-64